Time;durP1;ratioP1;P1;durP2;ratioP2;P2;SDS_P1;SDS_P2;PMS_P1;PMS_P2;Temp;Humidity;BMP_temperature;BMP_pressure;BME280_temperature;BME280_humidity;BME280_pressure;Samples;Min_cycle;Max_cycle;Signal;HPM_P1;HPM_P2
2024/02/08 00:01:22;;;;;;;4.30;3.83;;;;;;;2.65;100.00;100371.94;6197142;28;20232;-70
2024/02/08 00:04:44;;;;;;;7.13;3.83;;;;;;;2.65;100.00;100366.59;6196305;28;20232;-68
2024/02/08 00:08:06;;;;;;;7.27;4.37;;;;;;;2.76;100.00;100368.56;6208206;28;20217;-68
2024/02/08 00:11:28;;;;;;;7.13;4.97;;;;;;;2.70;100.00;100368.97;6205043;28;20236;-69
2024/02/08 00:14:49;;;;;;;8.27;4.60;;;;;;;2.76;100.00;100366.78;6202977;28;20225;-68
2024/02/08 00:18:10;;;;;;;6.37;3.10;;;;;;;2.79;100.00;100357.75;6197361;28;20521;-67
2024/02/08 00:21:32;;;;;;;6.17;4.47;;;;;;;2.66;100.00;100355.03;6195838;28;20808;-68
2024/02/08 00:24:53;;;;;;;15.10;4.80;;;;;;;2.63;100.00;100349.88;6195851;28;20320;-68
2024/02/08 00:28:16;;;;;;;8.03;3.37;;;;;;;2.63;100.00;100352.56;6207692;28;20233;-68
2024/02/08 00:31:37;;;;;;;5.10;3.20;;;;;;;2.59;100.00;100359.03;6198102;28;20221;-68
2024/02/08 00:35:03;;;;;;;9.33;4.03;;;;;;;2.61;100.00;100354.47;6203585;28;20619;-68
2024/02/08 00:38:24;;;;;;;11.43;4.57;;;;;;;2.71;100.00;100347.56;6189398;28;20233;-70
2024/02/08 00:41:48;;;;;;;5.23;3.40;;;;;;;2.57;100.00;100347.63;6188127;28;21118;-68
2024/02/08 00:45:11;;;;;;;5.43;2.80;;;;;;;2.48;100.00;100344.72;6204060;28;20246;-68
2024/02/08 00:48:32;;;;;;;11.10;3.70;;;;;;;2.54;100.00;100341.66;6202853;28;20675;-68
2024/02/08 00:51:53;;;;;;;11.10;4.50;;;;;;;2.52;100.00;100344.44;6199200;28;20226;-68
2024/02/08 00:55:15;;;;;;;5.57;3.20;;;;;;;2.49;100.00;100344.63;6199584;28;20225;-68
2024/02/08 00:58:36;;;;;;;5.53;3.10;;;;;;;2.48;100.00;100342.06;6204007;28;20252;-71
2024/02/08 01:01:58;;;;;;;6.47;3.80;;;;;;;2.42;100.00;100330.00;6187648;28;20233;-67
2024/02/08 01:05:20;;;;;;;4.70;2.90;;;;;;;2.53;100.00;100330.16;6202067;28;20751;-68
2024/02/08 01:08:41;;;;;;;7.03;3.67;;;;;;;2.41;100.00;100323.84;6205721;28;20229;-68
2024/02/08 01:12:04;;;;;;;7.57;3.87;;;;;;;2.31;100.00;100328.03;6202356;28;20599;-69
2024/02/08 01:15:26;;;;;;;9.57;4.90;;;;;;;2.29;100.00;100323.78;6199940;28;20324;-68
2024/02/08 01:18:52;;;;;;;7.53;3.13;;;;;;;2.22;100.00;100323.31;6205580;28;20241;-68
2024/02/08 01:22:19;;;;;;;3.93;3.53;;;;;;;2.20;100.00;100319.03;6191627;28;20694;-67
2024/02/08 01:25:41;;;;;;;11.23;4.43;;;;;;;2.18;100.00;100320.94;6193855;28;20261;-68
2024/02/08 01:29:05;;;;;;;13.53;4.13;;;;;;;2.19;100.00;100325.31;6199788;28;20225;-68
2024/02/08 01:32:27;;;;;;;8.10;3.80;;;;;;;2.24;100.00;100328.50;6194660;28;20308;-67
2024/02/08 01:35:51;;;;;;;7.43;2.80;;;;;;;2.18;100.00;100318.28;6201522;28;20332;-68
2024/02/08 01:39:13;;;;;;;10.13;3.50;;;;;;;2.17;100.00;100317.41;6205769;28;22120;-68
2024/02/08 01:42:37;;;;;;;8.13;4.27;;;;;;;2.18;100.00;100308.50;6202430;28;20319;-68
2024/02/08 01:45:59;;;;;;;8.17;3.70;;;;;;;2.24;100.00;100320.53;6199532;28;20232;-69
2024/02/08 01:49:23;;;;;;;11.70;4.63;;;;;;;2.24;100.00;100316.09;6204807;28;20233;-69
2024/02/08 01:52:50;;;;;;;3.63;3.33;;;;;;;2.18;100.00;100310.28;6197584;28;20237;-69
2024/02/08 01:56:12;;;;;;;3.80;2.70;;;;;;;2.19;100.00;100306.69;6199776;28;20604;-68
2024/02/08 01:59:38;;;;;;;5.43;4.13;;;;;;;2.21;100.00;100305.63;6207162;28;20518;-68
2024/02/08 02:03:01;;;;;;;7.60;4.13;;;;;;;2.15;100.00;100298.03;6193445;28;20511;-70
2024/02/08 02:06:22;;;;;;;8.73;4.13;;;;;;;2.16;100.00;100282.94;6202439;28;20237;-68
2024/02/08 02:09:45;;;;;;;9.00;2.77;;;;;;;2.19;100.00;100283.59;6204355;28;20528;-69
2024/02/08 02:13:09;;;;;;;4.13;3.47;;;;;;;2.30;100.00;100288.22;6197404;28;20233;-69
2024/02/08 02:16:30;;;;;;;3.67;2.97;;;;;;;2.40;100.00;100286.69;6201657;28;22016;-68
2024/02/08 02:19:52;;;;;;;7.37;3.20;;;;;;;2.48;100.00;100292.38;6200031;28;20253;-67
2024/02/08 02:23:18;;;;;;;5.87;3.73;;;;;;;2.42;100.00;100284.78;6207726;28;20285;-69
2024/02/08 02:26:40;;;;;;;7.73;3.70;;;;;;;2.46;100.00;100285.44;6199305;28;20634;-69
2024/02/08 02:30:06;;;;;;;7.07;4.30;;;;;;;2.52;100.00;100290.38;6196395;28;20658;-67
2024/02/08 02:33:28;;;;;;;9.30;3.47;;;;;;;2.56;100.00;100279.44;6205150;28;20225;-68
2024/02/08 02:36:53;;;;;;;6.03;4.50;;;;;;;2.61;100.00;100277.31;6195650;28;20229;-68
2024/02/08 02:40:22;;;;;;;7.87;3.90;;;;;;;2.65;100.00;100270.81;6201920;28;20619;-67
2024/02/08 02:43:45;;;;;;;4.90;3.77;;;;;;;2.59;100.00;100273.06;6206183;28;20229;-68
2024/02/08 02:47:07;;;;;;;10.93;3.80;;;;;;;2.66;100.00;100275.22;6189933;28;20236;-70
2024/02/08 02:50:28;;;;;;;4.27;3.53;;;;;;;2.73;100.00;100275.66;6199631;28;20229;-68
2024/02/08 02:53:49;;;;;;;8.10;3.20;;;;;;;2.77;100.00;100275.38;6202988;28;20225;-68
2024/02/08 02:57:11;;;;;;;6.33;3.10;;;;;;;2.80;100.00;100274.28;6200695;28;20246;-68
2024/02/08 03:00:34;;;;;;;7.37;3.33;;;;;;;2.84;100.00;100266.00;6196420;28;20256;-68
2024/02/08 03:03:57;;;;;;;4.47;3.53;;;;;;;2.82;100.00;100281.22;6198345;28;20229;-69
2024/02/08 03:07:18;;;;;;;7.13;4.00;;;;;;;2.92;100.00;100271.66;6205952;28;20244;-71
2024/02/08 03:10:39;;;;;;;11.50;3.50;;;;;;;2.92;100.00;100268.16;6195996;28;20610;-68
2024/02/08 03:14:04;;;;;;;7.07;4.37;;;;;;;2.91;100.00;100277.94;6201933;28;20233;-68
2024/02/08 03:17:25;;;;;;;8.17;3.40;;;;;;;2.89;100.00;100263.88;6192049;28;20229;-67
2024/02/08 03:20:47;;;;;;;6.17;4.33;;;;;;;2.94;100.00;100267.06;6193285;28;20287;-68
2024/02/08 03:24:08;;;;;;;4.43;3.20;;;;;;;2.87;100.00;100267.59;6209549;28;20237;-67
2024/02/08 03:27:32;;;;;;;10.00;4.50;;;;;;;2.87;100.00;100268.47;6198827;28;20337;-68
2024/02/08 03:30:55;;;;;;;7.70;3.37;;;;;;;2.91;100.00;100269.09;6193203;28;20240;-70
2024/02/08 03:34:19;;;;;;;6.87;3.90;;;;;;;2.92;100.00;100262.84;6201672;28;21898;-69
2024/02/08 03:37:43;;;;;;;15.37;4.43;;;;;;;2.91;100.00;100259.31;6195177;28;20873;-69
2024/02/08 03:41:05;;;;;;;10.03;3.67;;;;;;;2.94;100.00;100253.78;6182975;28;20225;-70
2024/02/08 03:44:29;;;;;;;4.83;3.47;;;;;;;2.95;100.00;100252.81;6203923;28;20229;-71
2024/02/08 03:47:52;;;;;;;4.73;3.33;;;;;;;2.96;100.00;100251.84;6192184;28;20228;-68
2024/02/08 03:51:14;;;;;;;9.27;4.03;;;;;;;2.96;100.00;100254.50;6199877;28;20246;-70
2024/02/08 03:54:37;;;;;;;6.60;3.00;;;;;;;2.96;100.00;100254.50;6201710;28;20233;-70
2024/02/08 03:58:00;;;;;;;12.70;4.13;;;;;;;2.96;100.00;100248.38;6196470;28;20657;-68
2024/02/08 04:01:21;;;;;;;5.67;3.90;;;;;;;2.97;100.00;100245.59;6189863;28;20224;-68
2024/02/08 04:04:53;;;;;;;8.70;3.27;;;;;;;2.95;100.00;100247.50;6201869;28;20544;-71
2024/02/08 04:08:52;;;;;;;7.83;4.07;;;;;;;2.98;100.00;100246.44;6200681;28;20229;-69
2024/02/08 04:55:56;;;;;;;4.63;3.73;;;;;;;2.97;100.00;100245.59;6197381;28;20682;-68
2024/02/08 04:59:20;;;;;;;7.13;4.00;;;;;;;2.87;100.00;100247.16;6204306;28;20229;-69
2024/02/08 05:02:41;;;;;;;4.57;3.53;;;;;;;2.87;100.00;100246.31;6186638;28;20607;-67
2024/02/08 05:06:02;;;;;;;5.63;4.10;;;;;;;2.89;100.00;100239.94;6189124;28;20234;-68
2024/02/08 05:09:23;;;;;;;5.93;4.57;;;;;;;2.83;100.00;100232.38;6204333;28;20240;-69
2024/02/08 05:12:47;;;;;;;9.30;5.10;;;;;;;2.88;100.00;100234.72;6195369;28;21381;-70
2024/02/08 05:16:15;;;;;;;8.80;4.50;;;;;;;2.88;100.00;100240.06;6196979;28;20233;-69
2024/02/08 05:19:39;;;;;;;8.50;4.67;;;;;;;2.80;100.00;100235.22;6201768;28;20612;-69
2024/02/08 05:23:01;;;;;;;10.57;5.60;;;;;;;2.88;100.00;100243.53;6197183;28;21364;-68
2024/02/08 05:26:25;;;;;;;5.50;4.27;;;;;;;2.84;100.00;100252.69;6193743;28;20655;-68
2024/02/08 05:29:46;;;;;;;9.17;4.93;;;;;;;2.83;100.00;100245.69;6200372;28;20225;-68
2024/02/08 05:33:09;;;;;;;8.50;3.97;;;;;;;2.83;100.00;100250.13;6199424;28;20225;-68
2024/02/08 05:36:30;;;;;;;10.10;4.83;;;;;;;2.82;100.00;100246.63;6196847;28;20229;-69
2024/02/08 05:39:51;;;;;;;7.70;4.40;;;;;;;2.83;100.00;100245.69;6200445;28;20546;-69
2024/02/08 05:43:16;;;;;;;4.40;3.83;;;;;;;2.84;100.00;100241.19;6198575;28;20237;-67
2024/02/08 05:46:38;;;;;;;7.10;4.67;;;;;;;3.02;100.00;100242.63;6191460;28;20236;-71
2024/02/08 05:50:06;;;;;;;7.90;5.03;;;;;;;2.95;100.00;100249.31;6213723;28;20249;-68
2024/02/08 05:53:29;;;;;;;5.53;3.60;;;;;;;2.87;100.00;100264.94;6199680;28;20240;-68
2024/02/08 05:56:57;;;;;;;4.77;4.03;;;;;;;2.97;100.00;100258.03;6197487;28;20229;-69
2024/02/08 06:00:32;;;;;;;6.00;4.57;;;;;;;2.95;100.00;100259.94;6196229;28;20241;-68
2024/02/08 06:03:55;;;;;;;5.70;3.53;;;;;;;2.98;100.00;100241.94;6198802;28;20241;-70
2024/02/08 06:07:19;;;;;;;8.67;3.87;;;;;;;3.11;100.00;100237.50;6200055;28;20229;-70
2024/02/08 06:10:45;;;;;;;5.90;3.53;;;;;;;2.92;100.00;100250.34;6187526;28;20229;-68
2024/02/08 06:14:17;;;;;;;5.40;4.00;;;;;;;2.97;100.00;100248.25;6197393;28;20233;-68
2024/02/08 06:17:38;;;;;;;6.40;3.80;;;;;;;3.02;100.00;100251.47;6184786;28;20662;-68
2024/02/08 06:21:12;;;;;;;4.90;3.40;;;;;;;2.97;100.00;100242.06;6185720;28;20607;-68
2024/02/08 06:24:44;;;;;;;9.53;4.60;;;;;;;2.84;100.00;100239.38;6191892;28;20241;-69
2024/02/08 06:28:05;;;;;;;6.43;4.07;;;;;;;2.82;100.00;100243.94;6182667;28;20233;-68
2024/02/08 06:31:29;;;;;;;5.67;3.90;;;;;;;2.96;100.00;100246.53;6179096;28;20256;-68
2024/02/08 06:35:06;;;;;;;6.77;4.27;;;;;;;2.93;100.00;100244.09;6195719;28;20225;-70
2024/02/08 06:38:40;;;;;;;4.87;3.67;;;;;;;3.03;100.00;100250.50;6192383;28;20273;-69
2024/02/08 06:42:29;;;;;;;10.80;4.47;;;;;;;3.18;100.00;100243.28;6178188;28;20494;-69
2024/02/08 06:46:09;;;;;;;7.23;4.17;;;;;;;3.16;100.00;100238.06;6181108;28;20311;-69
2024/02/08 07:37:25;;;;;;;11.07;4.73;;;;;;;3.50;100.00;100227.72;6193097;28;20236;-68
2024/02/08 07:40:51;;;;;;;9.53;5.23;;;;;;;3.51;100.00;100218.75;6189324;28;20745;-67
2024/02/08 07:44:21;;;;;;;10.20;7.23;;;;;;;3.68;100.00;100226.41;6205506;28;20229;-68
2024/02/08 07:47:57;;;;;;;5.37;3.03;;;;;;;3.64;100.00;100230.25;6189877;28;20244;-69
2024/02/08 07:51:23;;;;;;;7.20;4.07;;;;;;;3.45;100.00;100241.38;6193377;28;20626;-70
2024/02/08 07:54:46;;;;;;;10.33;4.73;;;;;;;3.35;100.00;100245.63;6192455;28;20229;-69
2024/02/08 07:58:08;;;;;;;8.13;5.23;;;;;;;3.49;100.00;100245.50;6199439;28;20225;-67
2024/02/08 08:01:32;;;;;;;13.70;5.07;;;;;;;3.69;100.00;100247.63;6179959;28;20666;-68
2024/02/08 08:04:53;;;;;;;9.40;4.63;;;;;;;3.86;100.00;100252.63;6198392;28;20367;-68
2024/02/08 08:08:24;;;;;;;6.77;4.83;;;;;;;3.92;100.00;100248.69;6193331;28;20328;-68
2024/02/08 08:11:46;;;;;;;4.63;3.27;;;;;;;3.82;100.00;100235.13;6195557;28;20228;-68
2024/02/08 08:15:14;;;;;;;6.80;5.23;;;;;;;3.64;100.00;100227.59;6203175;28;20241;-68
2024/02/08 08:18:38;;;;;;;8.37;4.30;;;;;;;3.55;100.00;100225.56;6205022;28;20350;-68
2024/02/08 08:22:04;;;;;;;17.47;5.17;;;;;;;3.64;100.00;100227.59;6202245;28;20733;-68
2024/02/08 08:25:29;;;;;;;7.10;4.53;;;;;;;3.58;100.00;100220.03;6198356;28;20237;-68
2024/02/08 08:28:53;;;;;;;11.43;5.20;;;;;;;3.46;100.00;100228.91;6203205;28;20551;-68
2024/02/08 08:36:04;;;;;;;5.27;4.13;;;;;;;3.54;100.00;100235.41;6193137;28;20233;-72
2024/02/08 08:43:10;;;;;;;7.70;5.27;;;;;;;3.36;100.00;100226.00;6183470;28;20241;-70
2024/02/08 08:46:32;;;;;;;19.40;7.47;;;;;;;3.49;100.00;100226.88;6190649;28;21954;-69
2024/02/08 08:49:53;;;;;;;9.27;6.20;;;;;;;3.53;100.00;100222.16;6204996;28;20324;-68
2024/02/08 08:53:19;;;;;;;13.23;4.97;;;;;;;3.40;100.00;100221.34;6191109;28;20668;-68
2024/02/08 08:56:40;;;;;;;8.50;5.87;;;;;;;3.40;100.00;100216.84;6193612;28;20647;-68
2024/02/08 09:00:09;;;;;;;10.60;6.20;;;;;;;3.39;100.00;100211.63;6210788;28;20611;-70
2024/02/08 09:03:33;;;;;;;8.07;4.87;;;;;;;3.46;100.00;100210.25;6212952;28;20228;-68
2024/02/08 09:06:55;;;;;;;8.40;4.93;;;;;;;3.45;100.00;100204.06;6201042;28;20237;-70
2024/02/08 09:10:15;;;;;;;5.73;5.03;;;;;;;3.58;100.00;100212.91;6183666;28;20233;-69
2024/02/08 09:13:37;;;;;;;9.00;4.90;;;;;;;3.55;100.00;100209.59;6196043;28;20542;-70
2024/02/08 09:16:59;;;;;;;9.00;5.17;;;;;;;3.56;100.00;100219.31;6188738;28;20237;-69
2024/02/08 09:20:23;;;;;;;7.87;5.50;;;;;;;3.54;100.00;100218.56;6194020;28;20740;-70
2024/02/08 09:23:44;;;;;;;12.17;5.13;;;;;;;3.73;100.00;100217.16;6202175;28;20233;-69
2024/02/08 09:27:15;;;;;;;12.70;4.77;;;;;;;3.77;100.00;100204.44;6198349;28;20245;-69
2024/02/08 09:30:39;;;;;;;8.33;5.60;;;;;;;3.91;100.00;100199.84;6193501;28;20324;-69
2024/02/08 09:34:13;;;;;;;9.77;5.40;;;;;;;4.23;100.00;100197.50;6195970;28;20230;-69
2024/02/08 09:37:34;;;;;;;14.83;6.23;;;;;;;4.50;100.00;100205.25;6189946;28;20308;-69
2024/02/08 09:40:59;;;;;;;13.10;4.93;;;;;;;4.33;100.00;100197.66;6200226;28;20236;-68
2024/02/08 09:44:26;;;;;;;13.33;5.17;;;;;;;4.28;100.00;100195.31;6192567;28;20233;-69
2024/02/08 09:47:51;;;;;;;12.17;6.93;;;;;;;4.53;100.00;100194.34;6191501;28;20234;-69
2024/02/08 09:51:23;;;;;;;12.77;5.60;;;;;;;4.59;100.00;100189.41;6197793;28;20261;-69
2024/02/08 09:54:52;;;;;;;14.00;6.63;;;;;;;4.58;100.00;100182.38;6203819;28;20654;-70
2024/02/08 09:58:13;;;;;;;8.57;5.87;;;;;;;4.48;100.00;100186.69;6204204;28;20232;-69
2024/02/08 10:01:42;;;;;;;14.37;5.63;;;;;;;4.79;100.00;100180.75;6201542;28;20308;-69
2024/02/08 10:08:51;;;;;;;19.57;9.40;;;;;;;4.75;100.00;100173.09;6204245;28;20233;-70
2024/02/08 10:12:18;;;;;;;11.90;6.27;;;;;;;4.97;100.00;100189.16;6196621;28;20249;-71
2024/02/08 10:15:40;;;;;;;11.77;6.13;;;;;;;4.67;100.00;100179.00;6187386;28;20721;-71
2024/02/08 10:19:16;;;;;;;8.93;5.13;;;;;;;4.59;100.00;100188.56;6200855;28;20513;-68
2024/02/08 10:22:43;;;;;;;13.13;4.93;;;;;;;4.78;100.00;100172.84;6206580;28;20233;-67
2024/02/08 10:26:26;;;;;;;13.23;5.07;;;;;;;4.77;100.00;100181.81;6188745;28;20241;-69
2024/02/08 10:29:56;;;;;;;14.17;6.20;;;;;;;4.90;100.00;100168.41;6193769;28;20229;-70
2024/02/08 10:33:24;;;;;;;7.27;5.23;;;;;;;4.85;100.00;100174.94;6197937;28;20719;-69
2024/02/08 10:36:45;;;;;;;12.10;7.10;;;;;;;4.79;100.00;100171.88;6202083;28;20659;-69
2024/02/08 10:43:52;;;;;;;9.33;7.00;;;;;;;4.74;100.00;100163.34;6207015;28;20229;-68
2024/02/08 10:47:13;;;;;;;11.03;5.67;;;;;;;4.75;100.00;100165.94;6192505;28;20572;-69
2024/02/08 10:50:35;;;;;;;12.97;6.63;;;;;;;4.62;100.00;100157.16;6199738;28;20233;-70
2024/02/08 10:54:05;;;;;;;9.83;6.03;;;;;;;4.74;100.00;100148.19;6208727;28;20237;-69
2024/02/08 10:57:57;;;;;;;20.00;6.23;;;;;;;4.77;100.00;100145.31;6188907;28;20327;-68
2024/02/08 11:05:12;;;;;;;8.33;5.70;;;;;;;5.00;100.00;100142.69;6179365;28;20229;-69
2024/02/08 11:08:50;;;;;;;17.43;7.47;;;;;;;4.91;100.00;100133.56;6209225;28;20279;-69
2024/02/08 11:12:21;;;;;;;8.50;5.70;;;;;;;5.17;100.00;100128.84;6177885;28;20240;-72
2024/02/08 11:15:50;;;;;;;19.20;6.93;;;;;;;5.13;100.00;100132.75;6186447;28;20224;-71
2024/02/08 11:19:17;;;;;;;8.73;6.43;;;;;;;5.27;100.00;100127.16;6202382;28;20611;-69
2024/02/08 11:22:42;;;;;;;10.73;7.37;;;;;;;5.11;100.00;100138.19;6188473;28;20233;-69
2024/02/08 11:26:07;;;;;;;10.40;5.70;;;;;;;5.02;100.00;100132.72;6177417;28;20682;-70
2024/02/08 11:29:28;;;;;;;10.63;5.73;;;;;;;5.41;100.00;100132.25;6202666;28;20233;-70
2024/02/08 11:33:01;;;;;;;20.23;7.03;;;;;;;5.31;100.00;100133.97;6187224;28;20245;-68
2024/02/08 11:36:34;;;;;;;18.20;9.70;;;;;;;5.46;100.00;100125.59;6203771;28;20224;-69
2024/02/08 11:39:59;;;;;;;17.33;14.30;;;;;;;5.69;100.00;100131.75;6198109;28;20552;-69
2024/02/08 11:43:23;;;;;;;8.23;6.17;;;;;;;5.34;100.00;100117.69;6202701;28;20738;-69
2024/02/08 11:46:46;;;;;;;20.13;7.87;;;;;;;5.27;100.00;100111.97;6190252;28;20232;-69
2024/02/08 11:50:11;;;;;;;9.47;5.60;;;;;;;5.66;100.00;100113.28;6200729;28;20225;-68
2024/02/08 11:53:33;;;;;;;10.73;6.60;;;;;;;5.59;100.00;100106.75;6205566;28;20359;-69
2024/02/08 11:56:57;;;;;;;7.87;5.70;;;;;;;5.83;100.00;100088.69;6195610;28;20710;-68
2024/02/08 12:00:19;;;;;;;8.73;6.20;;;;;;;6.08;100.00;100095.56;6183206;28;20273;-68
2024/02/08 12:03:42;;;;;;;13.97;5.60;;;;;;;5.95;100.00;100086.84;6213484;28;20241;-70
2024/02/08 12:07:04;;;;;;;14.50;6.87;;;;;;;5.98;100.00;100087.47;6201345;28;20233;-70
2024/02/08 12:10:26;;;;;;;13.70;7.67;;;;;;;5.71;100.00;100079.00;6198422;28;20818;-68
2024/02/08 12:13:48;;;;;;;9.67;6.80;;;;;;;5.75;100.00;100083.13;6210821;28;20233;-68
2024/02/08 12:17:10;;;;;;;10.97;5.80;;;;;;;5.91;100.00;100074.72;6192649;28;20237;-69
2024/02/08 12:20:31;;;;;;;15.63;6.97;;;;;;;6.02;100.00;100072.00;6188027;28;20611;-70
2024/02/08 12:23:54;;;;;;;9.80;6.33;;;;;;;6.03;100.00;100076.41;6204010;28;20221;-69
2024/02/08 12:27:25;;;;;;;9.53;5.40;;;;;;;5.60;100.00;100068.34;6195687;28;20233;-67
2024/02/08 12:30:46;;;;;;;11.00;5.60;;;;;;;5.51;100.00;100071.75;6188821;28;20229;-69
2024/02/08 12:34:08;;;;;;;25.53;15.30;;;;;;;5.82;100.00;100059.41;6190207;28;20241;-68
2024/02/08 12:37:29;;;;;;;10.80;7.33;;;;;;;5.84;100.00;100057.50;6195873;28;20320;-70
2024/02/08 12:40:50;;;;;;;12.80;7.57;;;;;;;5.80;100.00;100051.50;6192261;28;20233;-69
2024/02/08 12:44:14;;;;;;;12.40;6.03;;;;;;;5.99;100.00;100038.34;6201177;28;20228;-69
2024/02/08 12:47:35;;;;;;;6.47;5.03;;;;;;;5.78;100.00;100042.75;6188368;28;20237;-69
2024/02/08 12:50:56;;;;;;;9.03;5.87;;;;;;;5.55;100.00;100044.63;6192413;28;20257;-68
2024/02/08 12:54:17;;;;;;;10.80;5.83;;;;;;;5.80;100.00;100039.97;6202662;28;20232;-68
2024/02/08 12:57:39;;;;;;;15.27;5.87;;;;;;;5.48;100.00;100050.63;6187820;28;20225;-71
2024/02/08 13:01:04;;;;;;;9.77;5.30;;;;;;;5.26;100.00;100037.28;6195642;28;20237;-69
2024/02/08 13:04:26;;;;;;;24.73;22.07;;;;;;;5.28;100.00;100029.97;6207229;28;20229;-68
2024/02/08 13:07:57;;;;;;;14.63;11.60;;;;;;;5.58;100.00;100032.84;6197599;28;20257;-68
2024/02/08 13:11:21;;;;;;;9.43;6.27;;;;;;;5.61;100.00;100029.94;6196642;28;20220;-69
2024/02/08 13:14:48;;;;;;;5.77;4.57;;;;;;;5.69;100.00;100020.28;6221979;28;20570;-73
2024/02/08 13:18:11;;;;;;;6.07;4.47;;;;;;;5.80;100.00;100014.06;6193691;28;20221;-69
2024/02/08 13:21:33;;;;;;;7.90;4.80;;;;;;;5.66;100.00;100012.53;6172041;28;20324;-66
2024/02/08 13:24:55;;;;;;;10.03;5.70;;;;;;;5.58;100.00;100015.00;6201683;28;20225;-67
2024/02/08 13:28:23;;;;;;;10.80;5.67;;;;;;;5.42;100.00;100011.84;6202153;28;21051;-71
2024/02/08 13:31:44;;;;;;;8.83;5.73;;;;;;;5.62;100.00;99996.88;6197241;28;20233;-68
2024/02/08 13:35:08;;;;;;;13.93;6.30;;;;;;;5.53;100.00;100002.97;6201333;28;21068;-69
2024/02/08 13:38:31;;;;;;;14.57;6.00;;;;;;;5.48;100.00;100002.50;6204683;28;20224;-73
2024/02/08 13:41:52;;;;;;;8.83;5.70;;;;;;;5.37;100.00;99995.38;6194801;28;20543;-69
2024/02/08 13:45:15;;;;;;;8.93;5.33;;;;;;;5.04;100.00;99999.91;6195243;28;20234;-68
2024/02/08 13:48:35;;;;;;;11.83;5.33;;;;;;;5.18;100.00;99992.50;6208845;28;20233;-68
2024/02/08 13:51:58;;;;;;;8.73;5.83;;;;;;;4.98;100.00;99987.91;6195813;28;20246;-67
2024/02/08 13:55:19;;;;;;;9.37;5.83;;;;;;;5.09;100.00;99979.03;6190994;28;20229;-68
2024/02/08 13:58:40;;;;;;;11.33;5.30;;;;;;;5.24;100.00;99980.44;6204406;28;20516;-66
2024/02/08 14:02:01;;;;;;;6.83;4.77;;;;;;;5.12;100.00;99978.78;6198653;28;20249;-69
2024/02/08 14:05:24;;;;;;;8.70;4.60;;;;;;;5.36;100.00;99976.78;6203293;28;20914;-69
2024/02/08 14:08:53;;;;;;;13.00;4.73;;;;;;;5.13;100.00;99975.16;6202699;28;20887;-70
2024/02/08 14:12:24;;;;;;;8.53;5.37;;;;;;;5.32;100.00;99970.84;6201601;28;20256;-69
2024/02/08 14:15:47;;;;;;;10.43;5.73;;;;;;;5.20;100.00;99965.63;6203206;28;20245;-69
2024/02/08 14:19:11;;;;;;;4.73;4.30;;;;;;;5.15;100.00;99959.84;6204828;28;20229;-68
2024/02/08 14:22:38;;;;;;;11.80;5.37;;;;;;;5.11;100.00;99969.06;6183361;28;20727;-68
2024/02/08 14:26:09;;;;;;;6.50;5.90;;;;;;;4.83;100.00;99962.44;6186817;28;20233;-71
2024/02/08 14:29:42;;;;;;;12.03;5.67;;;;;;;4.97;100.00;99963.97;6148878;28;20338;-68
2024/02/08 14:33:19;;;;;;;8.50;5.50;;;;;;;4.95;100.00;99953.44;6179464;28;20796;-70
2024/02/08 14:36:42;;;;;;;6.23;5.00;;;;;;;4.91;100.00;99951.97;6189346;28;20228;-68
2024/02/08 14:40:03;;;;;;;7.43;4.80;;;;;;;4.73;100.00;99954.31;6205890;28;20237;-68
2024/02/08 14:43:31;;;;;;;6.10;4.90;;;;;;;4.61;100.00;99952.59;6197430;28;20316;-68
2024/02/08 14:46:52;;;;;;;7.13;4.80;;;;;;;4.79;100.00;99937.81;6194926;28;20217;-70
2024/02/08 14:50:48;;;;;;;10.33;5.97;;;;;;;4.78;100.00;99937.91;6199308;28;21123;-69
2024/02/08 14:53:59;;;;;;;7.90;5.20;;;;;;;4.76;100.00;99938.03;6199117;28;20230;-68
2024/02/08 14:57:19;;;;;;;8.97;5.43;;;;;;;4.74;100.00;99936.44;6196128;28;20713;-68
2024/02/08 15:00:57;;;;;;;10.33;5.13;;;;;;;4.78;100.00;99929.91;6204499;28;20233;-69
2024/02/08 15:04:21;;;;;;;14.37;4.77;;;;;;;4.87;100.00;99926.50;6200730;28;20250;-68
2024/02/08 15:07:47;;;;;;;9.77;5.07;;;;;;;5.01;100.00;99920.03;6198592;28;20260;-69
2024/02/08 15:11:25;;;;;;;6.30;4.43;;;;;;;5.10;100.00;99912.13;6197142;28;20634;-66
2024/02/08 15:14:46;;;;;;;9.87;4.20;;;;;;;4.95;100.00;99912.50;6200911;28;20238;-66
2024/02/08 15:18:11;;;;;;;14.90;4.93;;;;;;;5.06;100.00;99899.16;6195990;28;20236;-67
2024/02/08 15:21:35;;;;;;;16.20;6.27;;;;;;;4.86;100.00;99893.59;6196350;28;20599;-67
2024/02/08 15:24:57;;;;;;;7.60;5.43;;;;;;;4.54;100.00;99890.03;6202128;28;20233;-69
2024/02/08 15:28:31;;;;;;;10.73;4.47;;;;;;;4.61;100.00;99883.19;6203829;28;20241;-69
2024/02/08 15:31:56;;;;;;;15.20;5.93;;;;;;;4.74;100.00;99877.72;6186959;28;20607;-70
2024/02/08 15:35:26;;;;;;;7.13;5.00;;;;;;;4.72;100.00;99869.00;6198865;28;20525;-67
2024/02/08 15:39:00;;;;;;;10.30;5.10;;;;;;;4.44;100.00;99856.19;6193056;28;20284;-67
2024/02/08 15:42:31;;;;;;;8.03;5.50;;;;;;;4.47;100.00;99853.25;6189569;28;20229;-66
2024/02/08 15:45:54;;;;;;;8.33;6.00;;;;;;;4.59;100.00;99845.13;6196308;28;20218;-69
2024/02/08 15:49:15;;;;;;;14.80;6.03;;;;;;;4.70;100.00;99841.56;6192430;28;20229;-68
2024/02/08 15:52:42;;;;;;;11.70;4.77;;;;;;;4.55;100.00;99834.81;6193700;28;20643;-68
2024/02/08 15:56:04;;;;;;;6.37;4.40;;;;;;;4.58;100.00;99839.91;6195784;28;20592;-69
2024/02/08 15:59:27;;;;;;;5.20;4.43;;;;;;;4.61;100.00;99843.16;6200016;28;20245;-69
2024/02/08 16:02:51;;;;;;;7.40;4.70;;;;;;;4.60;100.00;99840.63;6186684;28;20260;-68
2024/02/08 16:09:57;;;;;;;6.47;4.10;;;;;;;4.59;100.00;99842.44;6194178;28;20229;-69
2024/02/08 16:13:23;;;;;;;8.03;5.13;;;;;;;4.23;100.00;99844.56;6190131;28;20240;-69
2024/02/08 16:17:05;;;;;;;15.20;4.43;;;;;;;4.33;100.00;99846.38;6186018;28;20233;-67
2024/02/08 16:20:26;;;;;;;5.60;4.07;;;;;;;4.14;100.00;99848.78;6197516;28;20229;-68
2024/02/08 16:23:48;;;;;;;8.73;4.67;;;;;;;4.00;100.00;99852.53;6203388;28;20233;-67
2024/02/08 16:27:13;;;;;;;9.83;5.03;;;;;;;3.84;100.00;99851.19;6196045;28;20229;-67
2024/02/08 16:30:34;;;;;;;8.33;4.77;;;;;;;3.85;100.00;99855.56;6190297;28;20718;-69
2024/02/08 16:34:07;;;;;;;9.07;4.63;;;;;;;3.76;100.00;99854.44;6189488;28;20233;-68
2024/02/08 16:37:43;;;;;;;9.00;4.97;;;;;;;3.71;100.00;99856.59;6189975;28;20233;-69
2024/02/08 16:41:06;;;;;;;5.20;3.83;;;;;;;3.68;100.00;99861.34;6196522;28;20683;-68
2024/02/08 16:44:37;;;;;;;4.67;3.80;;;;;;;3.89;100.00;99851.69;6203307;28;20606;-68
2024/02/08 16:48:08;;;;;;;8.03;4.63;;;;;;;3.75;100.00;99855.44;6178940;28;20769;-68
2024/02/08 16:51:37;;;;;;;6.23;4.47;;;;;;;3.45;100.00;99859.56;6179026;28;20249;-67
2024/02/08 16:55:00;;;;;;;16.83;6.30;;;;;;;3.37;100.00;99864.63;6183956;28;20276;-69
2024/02/08 16:58:28;;;;;;;11.97;5.60;;;;;;;3.32;100.00;99856.16;6181718;28;20233;-67
2024/02/08 17:02:03;;;;;;;6.90;3.47;;;;;;;3.50;100.00;99847.63;6172638;28;20232;-68
2024/02/08 17:05:28;;;;;;;7.40;4.93;;;;;;;3.51;100.00;99864.44;6180234;28;21026;-68
2024/02/08 17:09:00;;;;;;;7.97;4.87;;;;;;;3.14;100.00;99861.03;6192156;28;20316;-68
2024/02/08 17:12:27;;;;;;;7.73;3.90;;;;;;;3.21;100.00;99864.94;6186879;28;20233;-68
2024/02/08 17:15:56;;;;;;;6.63;3.57;;;;;;;3.07;100.00;99875.75;6181859;28;20670;-68
2024/02/08 17:19:40;;;;;;;5.63;3.30;;;;;;;2.89;100.00;99871.81;6204245;28;20232;-68
2024/02/08 17:23:05;;;;;;;7.00;3.97;;;;;;;2.63;100.00;99876.34;6200665;28;20253;-69
2024/02/08 17:26:37;;;;;;;6.00;3.90;;;;;;;2.54;100.00;99871.72;6210213;28;21427;-68
2024/02/08 17:30:05;;;;;;;12.90;4.00;;;;;;;2.37;100.00;99875.59;6208167;28;20269;-67
2024/02/08 17:33:26;;;;;;;6.53;3.00;;;;;;;2.38;100.00;99877.28;6204728;28;20229;-69
2024/02/08 17:36:53;;;;;;;8.57;3.80;;;;;;;2.66;100.00;99875.28;6195921;28;20237;-69
2024/02/08 17:40:18;;;;;;;4.60;3.13;;;;;;;2.57;100.00;99874.13;6200055;28;20253;-68
2024/02/08 17:43:39;;;;;;;4.43;3.10;;;;;;;2.06;100.00;99873.41;6213520;28;20249;-67
2024/02/08 17:47:05;;;;;;;2.97;2.67;;;;;;;2.19;100.00;99881.34;6198005;28;20335;-69